PWSweather.com
Personal Weather Stations
Station Observations
BREEJEDURP
'sGravenzande, WestlandNL

'sGravenzandeWestlandNL

Lat: 52.00095260000001, Lon: 4.174256600000035

Elevation: 3

Station Type: Davis Vantage Pro2 Plus

www.breejedurp.nl

High Low Average
Temperature 38.5°F3.6°C 31.3°F-0.4°C 35.3°F1.8°C
Dew Point 35.8°F2.1°C 26.7°F-2.9°C 30.5°F-0.8°C
Winds 14.0 mph 22.5 kmh 2.0 mph 3.2 kmh 8.0 mph NE12.9 kmh NE
Wind Gusts 25.0 mph40.2 kmh 4.0 mph6.4 kmh 14.0 mph22.5 kmh
Humidity 92% 73% 83%
Pressure 30.36 in1028.1 mb 30.10 in1019.3 mb -
Precipitation 0.00 in0.0 mm - -
Hour Temp Dew Point Humidity Winds Wind Gusts Pressure Precip Precip Rate Daily Precip Total
12:04 AM 38.5°F3.6°C 35.8°F2.1°C 90% 4.0 mph NNE6.4 kmh NNE 9.0 mph14.5 kmh 30.10 in1019.3 mb 0.00 in0.0 mm 0.00 in0.0 mm 0.00 in0.0 mm
12:09 AM 38.3°F3.5°C 35.6°F2.0°C 90% 6.0 mph NE9.7 kmh NE 11.0 mph17.7 kmh 30.10 in1019.3 mb 0.00 in0.0 mm 0.00 in0.0 mm 0.00 in0.0 mm
12:14 AM 38.3°F3.5°C 35.6°F2.0°C 90% 4.0 mph NNE6.4 kmh NNE 7.0 mph11.3 kmh 30.10 in1019.3 mb 0.00 in0.0 mm 0.00 in0.0 mm 0.00 in0.0 mm
12:19 AM 38.1°F3.4°C 35.5°F1.9°C 90% 4.0 mph NNE6.4 kmh NNE 11.0 mph17.7 kmh 30.10 in1019.3 mb 0.00 in0.0 mm 0.00 in0.0 mm 0.00 in0.0 mm
12:24 AM 38.1°F3.4°C 35.5°F1.9°C 90% 6.0 mph NNE9.7 kmh NNE 11.0 mph17.7 kmh 30.11 in1019.6 mb 0.00 in0.0 mm 0.00 in0.0 mm 0.00 in0.0 mm
12:29 AM 38.1°F3.4°C 35.5°F1.9°C 90% 3.0 mph NNE4.8 kmh NNE 9.0 mph14.5 kmh 30.11 in1019.6 mb 0.00 in0.0 mm 0.00 in0.0 mm 0.00 in0.0 mm
12:34 AM 37.9°F3.3°C 35.3°F1.8°C 90% 4.0 mph NNE6.4 kmh NNE 8.0 mph12.9 kmh 30.11 in1019.6 mb 0.00 in0.0 mm 0.00 in0.0 mm 0.00 in0.0 mm
12:39 AM 37.9°F3.3°C 35.6°F2.0°C 91% 4.0 mph NNE6.4 kmh NNE 9.0 mph14.5 kmh 30.11 in1019.6 mb 0.00 in0.0 mm 0.00 in0.0 mm 0.00 in0.0 mm
12:44 AM 37.9°F3.3°C 35.3°F1.8°C 90% 3.0 mph NNE4.8 kmh NNE 8.0 mph12.9 kmh 30.11 in1019.6 mb 0.00 in0.0 mm 0.00 in0.0 mm 0.00 in0.0 mm
12:49 AM 37.9°F3.3°C 35.3°F1.8°C 90% 2.0 mph NNE3.2 kmh NNE 4.0 mph6.4 kmh 30.11 in1019.6 mb 0.00 in0.0 mm 0.00 in0.0 mm 0.00 in0.0 mm
12:54 AM 37.8°F3.2°C 35.4°F1.9°C 91% 3.0 mph NNE4.8 kmh NNE 6.0 mph9.7 kmh 30.11 in1019.6 mb 0.00 in0.0 mm 0.00 in0.0 mm 0.00 in0.0 mm
12:59 AM 37.8°F3.2°C 35.4°F1.9°C 91% 4.0 mph N6.4 kmh N 9.0 mph14.5 kmh 30.11 in1019.6 mb 0.00 in0.0 mm 0.00 in0.0 mm 0.00 in0.0 mm
01:04 AM 37.8°F3.2°C 35.4°F1.9°C 91% 5.0 mph NE8.0 kmh NE 8.0 mph12.9 kmh 30.12 in1020.0 mb 0.00 in0.0 mm 0.00 in0.0 mm 0.00 in0.0 mm
01:09 AM 37.8°F3.2°C 35.4°F1.9°C 91% 4.0 mph NE6.4 kmh NE 10.0 mph16.1 kmh 30.12 in1020.0 mb 0.00 in0.0 mm 0.00 in0.0 mm 0.00 in0.0 mm
01:14 AM 37.8°F3.2°C 35.4°F1.9°C 91% 3.0 mph NNE4.8 kmh NNE 7.0 mph11.3 kmh 30.12 in1020.0 mb 0.00 in0.0 mm 0.00 in0.0 mm 0.00 in0.0 mm
01:19 AM 37.8°F3.2°C 35.4°F1.9°C 91% 3.0 mph NNE4.8 kmh NNE 8.0 mph12.9 kmh 30.12 in1020.0 mb 0.00 in0.0 mm 0.00 in0.0 mm 0.00 in0.0 mm
01:24 AM 37.8°F3.2°C 35.7°F2.1°C 92% 4.0 mph NNE6.4 kmh NNE 8.0 mph12.9 kmh 30.13 in1020.3 mb 0.00 in0.0 mm 0.00 in0.0 mm 0.00 in0.0 mm
01:29 AM 37.8°F3.2°C 35.7°F2.1°C 92% 3.0 mph NNE4.8 kmh NNE 6.0 mph9.7 kmh 30.13 in1020.3 mb 0.00 in0.0 mm 0.00 in0.0 mm 0.00 in0.0 mm
01:34 AM 37.8°F3.2°C 35.7°F2.1°C 92% 6.0 mph NE9.7 kmh NE 11.0 mph17.7 kmh 30.13 in1020.3 mb 0.00 in0.0 mm 0.00 in0.0 mm 0.00 in0.0 mm
01:39 AM 37.8°F3.2°C 35.7°F2.1°C 92% 4.0 mph NNE6.4 kmh NNE 9.0 mph14.5 kmh 30.13 in1020.3 mb 0.00 in0.0 mm 0.00 in0.0 mm 0.00 in0.0 mm
01:44 AM 37.9°F3.3°C 35.8°F2.1°C 92% 4.0 mph NNE6.4 kmh NNE 9.0 mph14.5 kmh 30.14 in1020.7 mb 0.00 in0.0 mm 0.00 in0.0 mm 0.00 in0.0 mm
01:49 AM 37.9°F3.3°C 35.8°F2.1°C 92% 6.0 mph NE9.7 kmh NE 10.0 mph16.1 kmh 30.14 in1020.7 mb 0.00 in0.0 mm 0.00 in0.0 mm 0.00 in0.0 mm
01:54 AM 37.9°F3.3°C 35.8°F2.1°C 92% 4.0 mph NNE6.4 kmh NNE 9.0 mph14.5 kmh 30.14 in1020.7 mb 0.00 in0.0 mm 0.00 in0.0 mm 0.00 in0.0 mm
01:59 AM 37.9°F3.3°C 35.8°F2.1°C 92% 4.0 mph NE6.4 kmh NE 5.0 mph8.0 kmh 30.14 in1020.7 mb 0.00 in0.0 mm 0.00 in0.0 mm 0.00 in0.0 mm
02:04 AM 37.9°F3.3°C 35.8°F2.1°C 92% 6.0 mph NNE9.7 kmh NNE 11.0 mph17.7 kmh 30.14 in1020.7 mb 0.00 in0.0 mm 0.00 in0.0 mm 0.00 in0.0 mm
02:09 AM 37.9°F3.3°C 35.8°F2.1°C 92% 4.0 mph NNE6.4 kmh NNE 7.0 mph11.3 kmh 30.14 in1020.7 mb 0.00 in0.0 mm 0.00 in0.0 mm 0.00 in0.0 mm
02:14 AM 37.9°F3.3°C 35.8°F2.1°C 92% 5.0 mph NE8.0 kmh NE 9.0 mph14.5 kmh 30.14 in1020.7 mb 0.00 in0.0 mm 0.00 in0.0 mm 0.00 in0.0 mm
02:19 AM 37.8°F3.2°C 35.7°F2.1°C 92% 6.0 mph NNE9.7 kmh NNE 11.0 mph17.7 kmh 30.14 in1020.7 mb 0.00 in0.0 mm 0.00 in0.0 mm 0.00 in0.0 mm
02:24 AM 37.8°F3.2°C 35.7°F2.1°C 92% 5.0 mph NNE8.0 kmh NNE 9.0 mph14.5 kmh 30.14 in1020.7 mb 0.00 in0.0 mm 0.00 in0.0 mm 0.00 in0.0 mm
02:29 AM 37.8°F3.2°C 35.7°F2.1°C 92% 5.0 mph NNE8.0 kmh NNE 12.0 mph19.3 kmh 30.14 in1020.7 mb 0.00 in0.0 mm 0.00 in0.0 mm 0.00 in0.0 mm
02:34 AM 37.8°F3.2°C 35.4°F1.9°C 91% 7.0 mph NNE11.3 kmh NNE 12.0 mph19.3 kmh 30.15 in1021.0 mb 0.00 in0.0 mm 0.00 in0.0 mm 0.00 in0.0 mm
02:39 AM 37.8°F3.2°C 35.4°F1.9°C 91% 3.0 mph NNE4.8 kmh NNE 6.0 mph9.7 kmh 30.15 in1021.0 mb 0.00 in0.0 mm 0.00 in0.0 mm 0.00 in0.0 mm
02:44 AM 37.8°F3.2°C 35.4°F1.9°C 91% 6.0 mph ENE9.7 kmh ENE 12.0 mph19.3 kmh 30.15 in1021.0 mb 0.00 in0.0 mm 0.00 in0.0 mm 0.00 in0.0 mm
02:49 AM 37.8°F3.2°C 35.4°F1.9°C 91% 6.0 mph E9.7 kmh E 17.0 mph27.4 kmh 30.16 in1021.3 mb 0.00 in0.0 mm 0.00 in0.0 mm 0.00 in0.0 mm
02:54 AM 37.8°F3.2°C 35.1°F1.7°C 90% 8.0 mph NE12.9 kmh NE 14.0 mph22.5 kmh 30.16 in1021.3 mb 0.00 in0.0 mm 0.00 in0.0 mm 0.00 in0.0 mm
02:59 AM 37.6°F3.1°C 34.6°F1.4°C 89% 9.0 mph ENE14.5 kmh ENE 18.0 mph29.0 kmh 30.16 in1021.3 mb 0.00 in0.0 mm 0.00 in0.0 mm 0.00 in0.0 mm
03:04 AM 37.4°F3.0°C 34.5°F1.4°C 89% 6.0 mph NE9.7 kmh NE 9.0 mph14.5 kmh 30.16 in1021.3 mb 0.00 in0.0 mm 0.00 in0.0 mm 0.00 in0.0 mm
03:09 AM 37.2°F2.9°C 34.0°F1.1°C 88% 11.0 mph ENE17.7 kmh ENE 15.0 mph24.1 kmh 30.16 in1021.3 mb 0.00 in0.0 mm 0.00 in0.0 mm 0.00 in0.0 mm
03:14 AM 37.0°F2.8°C 34.1°F1.2°C 89% 12.0 mph ENE19.3 kmh ENE 19.0 mph30.6 kmh 30.16 in1021.3 mb 0.00 in0.0 mm 0.00 in0.0 mm 0.00 in0.0 mm
03:19 AM 36.9°F2.7°C 33.9°F1.1°C 89% 7.0 mph ENE11.3 kmh ENE 10.0 mph16.1 kmh 30.16 in1021.3 mb 0.00 in0.0 mm 0.00 in0.0 mm 0.00 in0.0 mm
03:24 AM 36.5°F2.5°C 33.6°F0.9°C 89% 10.0 mph ENE16.1 kmh ENE 23.0 mph37.0 kmh 30.17 in1021.7 mb 0.00 in0.0 mm 0.00 in0.0 mm 0.00 in0.0 mm
03:29 AM 36.3°F2.4°C 33.4°F0.8°C 89% 9.0 mph NNE14.5 kmh NNE 14.0 mph22.5 kmh 30.17 in1021.7 mb 0.00 in0.0 mm 0.00 in0.0 mm 0.00 in0.0 mm
03:34 AM 36.1°F2.3°C 33.2°F0.7°C 89% 8.0 mph ENE12.9 kmh ENE 12.0 mph19.3 kmh 30.18 in1022.0 mb 0.00 in0.0 mm 0.00 in0.0 mm 0.00 in0.0 mm
03:39 AM 36.3°F2.4°C 33.4°F0.8°C 89% 8.0 mph NE12.9 kmh NE 15.0 mph24.1 kmh 30.18 in1022.0 mb 0.00 in0.0 mm 0.00 in0.0 mm 0.00 in0.0 mm
03:44 AM 36.3°F2.4°C 33.4°F0.8°C 89% 9.0 mph NE14.5 kmh NE 12.0 mph19.3 kmh 30.18 in1022.0 mb 0.00 in0.0 mm 0.00 in0.0 mm 0.00 in0.0 mm
03:49 AM 36.1°F2.3°C 32.9°F0.5°C 88% 8.0 mph NE12.9 kmh NE 11.0 mph17.7 kmh 30.18 in1022.0 mb 0.00 in0.0 mm 0.00 in0.0 mm 0.00 in0.0 mm
03:54 AM 36.1°F2.3°C 32.9°F0.5°C 88% 7.0 mph NE11.3 kmh NE 12.0 mph19.3 kmh 30.18 in1022.0 mb 0.00 in0.0 mm 0.00 in0.0 mm 0.00 in0.0 mm
03:59 AM 36.0°F2.2°C 32.8°F0.4°C 88% 10.0 mph NE16.1 kmh NE 16.0 mph25.7 kmh 30.18 in1022.0 mb 0.00 in0.0 mm 0.00 in0.0 mm 0.00 in0.0 mm
04:04 AM 36.0°F2.2°C 32.8°F0.4°C 88% 8.0 mph NE12.9 kmh NE 17.0 mph27.4 kmh 30.19 in1022.4 mb 0.00 in0.0 mm 0.00 in0.0 mm 0.00 in0.0 mm
04:09 AM 36.0°F2.2°C 32.8°F0.4°C 88% 10.0 mph ENE16.1 kmh ENE 17.0 mph27.4 kmh 30.19 in1022.4 mb 0.00 in0.0 mm 0.00 in0.0 mm 0.00 in0.0 mm
04:14 AM 36.0°F2.2°C 32.8°F0.4°C 88% 8.0 mph ENE12.9 kmh ENE 15.0 mph24.1 kmh 30.19 in1022.4 mb 0.00 in0.0 mm 0.00 in0.0 mm 0.00 in0.0 mm
04:19 AM 36.0°F2.2°C 32.8°F0.4°C 88% 6.0 mph NE9.7 kmh NE 10.0 mph16.1 kmh 30.20 in1022.7 mb 0.00 in0.0 mm 0.00 in0.0 mm 0.00 in0.0 mm
04:24 AM 36.0°F2.2°C 32.5°F0.3°C 87% 5.0 mph ENE8.0 kmh ENE 8.0 mph12.9 kmh 30.20 in1022.7 mb 0.00 in0.0 mm 0.00 in0.0 mm 0.00 in0.0 mm
04:29 AM 36.0°F2.2°C 32.5°F0.3°C 87% 7.0 mph ENE11.3 kmh ENE 13.0 mph20.9 kmh 30.20 in1022.7 mb 0.00 in0.0 mm 0.00 in0.0 mm 0.00 in0.0 mm
04:34 AM 36.0°F2.2°C 32.5°F0.3°C 87% 8.0 mph NNE12.9 kmh NNE 14.0 mph22.5 kmh 30.20 in1022.7 mb 0.00 in0.0 mm 0.00 in0.0 mm 0.00 in0.0 mm
04:39 AM 36.0°F2.2°C 32.5°F0.3°C 87% 8.0 mph ENE12.9 kmh ENE 14.0 mph22.5 kmh 30.21 in1023.0 mb 0.00 in0.0 mm 0.00 in0.0 mm 0.00 in0.0 mm
04:44 AM 36.0°F2.2°C 32.5°F0.3°C 87% 5.0 mph ENE8.0 kmh ENE 10.0 mph16.1 kmh 30.20 in1022.7 mb 0.00 in0.0 mm 0.00 in0.0 mm 0.00 in0.0 mm
04:49 AM 35.8°F2.1°C 32.0°F0.0°C 86% 6.0 mph NE9.7 kmh NE 13.0 mph20.9 kmh 30.21 in1023.0 mb 0.00 in0.0 mm 0.00 in0.0 mm 0.00 in0.0 mm
04:54 AM 35.8°F2.1°C 32.3°F0.2°C 87% 7.0 mph NE11.3 kmh NE 11.0 mph17.7 kmh 30.21 in1023.0 mb 0.00 in0.0 mm 0.00 in0.0 mm 0.00 in0.0 mm
04:59 AM 35.6°F2.0°C 31.8°F-0.1°C 86% 9.0 mph NE14.5 kmh NE 21.0 mph33.8 kmh 30.21 in1023.0 mb 0.00 in0.0 mm 0.00 in0.0 mm 0.00 in0.0 mm
05:04 AM 35.8°F2.1°C 32.0°F0.0°C 86% 8.0 mph ENE12.9 kmh ENE 15.0 mph24.1 kmh 30.21 in1023.0 mb 0.00 in0.0 mm 0.00 in0.0 mm 0.00 in0.0 mm
05:09 AM 35.8°F2.1°C 32.0°F0.0°C 86% 11.0 mph ENE17.7 kmh ENE 15.0 mph24.1 kmh 30.21 in1023.0 mb 0.00 in0.0 mm 0.00 in0.0 mm 0.00 in0.0 mm
05:14 AM 35.8°F2.1°C 32.0°F0.0°C 86% 11.0 mph NE17.7 kmh NE 20.0 mph32.2 kmh 30.21 in1023.0 mb 0.00 in0.0 mm 0.00 in0.0 mm 0.00 in0.0 mm
05:19 AM 35.8°F2.1°C 31.7°F-0.2°C 85% 9.0 mph NE14.5 kmh NE 14.0 mph22.5 kmh 30.21 in1023.0 mb 0.00 in0.0 mm 0.00 in0.0 mm 0.00 in0.0 mm
05:24 AM 35.8°F2.1°C 31.7°F-0.2°C 85% 14.0 mph NE22.5 kmh NE 25.0 mph40.2 kmh 30.21 in1023.0 mb 0.00 in0.0 mm 0.00 in0.0 mm 0.00 in0.0 mm
05:29 AM 35.8°F2.1°C 31.7°F-0.2°C 85% 7.0 mph NE11.3 kmh NE 17.0 mph27.4 kmh 30.22 in1023.4 mb 0.00 in0.0 mm 0.00 in0.0 mm 0.00 in0.0 mm
05:34 AM 35.8°F2.1°C 31.7°F-0.2°C 85% 9.0 mph NE14.5 kmh NE 17.0 mph27.4 kmh 30.21 in1023.0 mb 0.00 in0.0 mm 0.00 in0.0 mm 0.00 in0.0 mm
05:39 AM 35.8°F2.1°C 31.7°F-0.2°C 85% 8.0 mph NE12.9 kmh NE 11.0 mph17.7 kmh 30.22 in1023.4 mb 0.00 in0.0 mm 0.00 in0.0 mm 0.00 in0.0 mm
05:44 AM 35.8°F2.1°C 31.7°F-0.2°C 85% 10.0 mph NE16.1 kmh NE 16.0 mph25.7 kmh 30.22 in1023.4 mb 0.00 in0.0 mm 0.00 in0.0 mm 0.00 in0.0 mm
05:49 AM 35.8°F2.1°C 31.7°F-0.2°C 85% 5.0 mph NE8.0 kmh NE 10.0 mph16.1 kmh 30.22 in1023.4 mb 0.00 in0.0 mm 0.00 in0.0 mm 0.00 in0.0 mm
05:54 AM 35.8°F2.1°C 31.7°F-0.2°C 85% 7.0 mph NE11.3 kmh NE 11.0 mph17.7 kmh 30.22 in1023.4 mb 0.00 in0.0 mm 0.00 in0.0 mm 0.00 in0.0 mm
05:59 AM 35.6°F2.0°C 31.5°F-0.3°C 85% 7.0 mph NNE11.3 kmh NNE 13.0 mph20.9 kmh 30.22 in1023.4 mb 0.00 in0.0 mm 0.00 in0.0 mm 0.00 in0.0 mm
06:04 AM 35.6°F2.0°C 31.5°F-0.3°C 85% 6.0 mph NE9.7 kmh NE 10.0 mph16.1 kmh 30.22 in1023.4 mb 0.00 in0.0 mm 0.00 in0.0 mm 0.00 in0.0 mm
06:09 AM 35.6°F2.0°C 31.5°F-0.3°C 85% 5.0 mph NE8.0 kmh NE 9.0 mph14.5 kmh 30.22 in1023.4 mb 0.00 in0.0 mm 0.00 in0.0 mm 0.00 in0.0 mm
06:14 AM 35.6°F2.0°C 31.5°F-0.3°C 85% 7.0 mph NNE11.3 kmh NNE 11.0 mph17.7 kmh 30.23 in1023.7 mb 0.00 in0.0 mm 0.00 in0.0 mm 0.00 in0.0 mm
06:19 AM 35.6°F2.0°C 31.8°F-0.1°C 86% 7.0 mph NNE11.3 kmh NNE 15.0 mph24.1 kmh 30.24 in1024.0 mb 0.00 in0.0 mm 0.00 in0.0 mm 0.00 in0.0 mm
06:24 AM 35.6°F2.0°C 31.8°F-0.1°C 86% 5.0 mph NE8.0 kmh NE 10.0 mph16.1 kmh 30.24 in1024.0 mb 0.00 in0.0 mm 0.00 in0.0 mm 0.00 in0.0 mm
06:29 AM 35.6°F2.0°C 31.8°F-0.1°C 86% 7.0 mph NE11.3 kmh NE 14.0 mph22.5 kmh 30.24 in1024.0 mb 0.00 in0.0 mm 0.00 in0.0 mm 0.00 in0.0 mm
06:34 AM 35.4°F1.9°C 31.7°F-0.2°C 86% 5.0 mph NE8.0 kmh NE 8.0 mph12.9 kmh 30.24 in1024.0 mb 0.00 in0.0 mm 0.00 in0.0 mm 0.00 in0.0 mm
06:39 AM 35.4°F1.9°C 31.7°F-0.2°C 86% 8.0 mph NE12.9 kmh NE 18.0 mph29.0 kmh 30.24 in1024.0 mb 0.00 in0.0 mm 0.00 in0.0 mm 0.00 in0.0 mm
06:44 AM 35.4°F1.9°C 31.7°F-0.2°C 86% 5.0 mph ENE8.0 kmh ENE 10.0 mph16.1 kmh 30.24 in1024.0 mb 0.00 in0.0 mm 0.00 in0.0 mm 0.00 in0.0 mm
06:49 AM 35.4°F1.9°C 31.7°F-0.2°C 86% 5.0 mph NE8.0 kmh NE 10.0 mph16.1 kmh 30.24 in1024.0 mb 0.00 in0.0 mm 0.00 in0.0 mm 0.00 in0.0 mm
06:54 AM 35.2°F1.8°C 31.8°F-0.1°C 87% 8.0 mph NE12.9 kmh NE 15.0 mph24.1 kmh 30.24 in1024.0 mb 0.00 in0.0 mm 0.00 in0.0 mm 0.00 in0.0 mm
06:59 AM 35.2°F1.8°C 31.5°F-0.3°C 86% 7.0 mph NE11.3 kmh NE 15.0 mph24.1 kmh 30.25 in1024.4 mb 0.00 in0.0 mm 0.00 in0.0 mm 0.00 in0.0 mm
07:04 AM 35.2°F1.8°C 31.5°F-0.3°C 86% 6.0 mph NE9.7 kmh NE 14.0 mph22.5 kmh 30.25 in1024.4 mb 0.00 in0.0 mm 0.00 in0.0 mm 0.00 in0.0 mm
07:09 AM 35.2°F1.8°C 31.8°F-0.1°C 87% 6.0 mph NNE9.7 kmh NNE 17.0 mph27.4 kmh 30.25 in1024.4 mb 0.00 in0.0 mm 0.00 in0.0 mm 0.00 in0.0 mm
07:14 AM 35.2°F1.8°C 31.8°F-0.1°C 87% 9.0 mph NNE14.5 kmh NNE 15.0 mph24.1 kmh 30.25 in1024.4 mb 0.00 in0.0 mm 0.00 in0.0 mm 0.00 in0.0 mm
07:19 AM 35.1°F1.7°C 31.3°F-0.4°C 86% 5.0 mph NE8.0 kmh NE 12.0 mph19.3 kmh 30.26 in1024.7 mb 0.00 in0.0 mm 0.00 in0.0 mm 0.00 in0.0 mm
07:24 AM 35.1°F1.7°C 31.6°F-0.2°C 87% 6.0 mph NNE9.7 kmh NNE 12.0 mph19.3 kmh 30.26 in1024.7 mb 0.00 in0.0 mm 0.00 in0.0 mm 0.00 in0.0 mm
07:29 AM 35.1°F1.7°C 31.6°F-0.2°C 87% 8.0 mph NE12.9 kmh NE 16.0 mph25.7 kmh 30.26 in1024.7 mb 0.00 in0.0 mm 0.00 in0.0 mm 0.00 in0.0 mm
07:34 AM 35.1°F1.7°C 31.6°F-0.2°C 87% 8.0 mph NNE12.9 kmh NNE 13.0 mph20.9 kmh 30.26 in1024.7 mb 0.00 in0.0 mm 0.00 in0.0 mm 0.00 in0.0 mm
07:39 AM 35.1°F1.7°C 31.6°F-0.2°C 87% 7.0 mph NE11.3 kmh NE 14.0 mph22.5 kmh 30.27 in1025.1 mb 0.00 in0.0 mm 0.00 in0.0 mm 0.00 in0.0 mm
07:44 AM 35.1°F1.7°C 31.6°F-0.2°C 87% 6.0 mph NNE9.7 kmh NNE 11.0 mph17.7 kmh 30.27 in1025.1 mb 0.00 in0.0 mm 0.00 in0.0 mm 0.00 in0.0 mm
07:49 AM 35.1°F1.7°C 31.3°F-0.4°C 86% 7.0 mph NNE11.3 kmh NNE 13.0 mph20.9 kmh 30.27 in1025.1 mb 0.00 in0.0 mm 0.00 in0.0 mm 0.00 in0.0 mm
07:54 AM 35.1°F1.7°C 31.3°F-0.4°C 86% 5.0 mph NE8.0 kmh NE 8.0 mph12.9 kmh 30.27 in1025.1 mb 0.00 in0.0 mm 0.00 in0.0 mm 0.00 in0.0 mm
07:59 AM 34.9°F1.6°C 31.1°F-0.5°C 86% 6.0 mph NE9.7 kmh NE 10.0 mph16.1 kmh 30.28 in1025.4 mb 0.00 in0.0 mm 0.00 in0.0 mm 0.00 in0.0 mm
08:04 AM 34.9°F1.6°C 31.4°F-0.3°C 87% 6.0 mph ENE9.7 kmh ENE 13.0 mph20.9 kmh 30.28 in1025.4 mb 0.00 in0.0 mm 0.00 in0.0 mm 0.00 in0.0 mm
08:09 AM 34.9°F1.6°C 31.4°F-0.3°C 87% 8.0 mph ENE12.9 kmh ENE 14.0 mph22.5 kmh 30.28 in1025.4 mb 0.00 in0.0 mm 0.00 in0.0 mm 0.00 in0.0 mm
08:14 AM 34.9°F1.6°C 31.4°F-0.3°C 87% 6.0 mph NNE9.7 kmh NNE 12.0 mph19.3 kmh 30.28 in1025.4 mb 0.00 in0.0 mm 0.00 in0.0 mm 0.00 in0.0 mm
08:19 AM 34.9°F1.6°C 31.4°F-0.3°C 87% 6.0 mph NE9.7 kmh NE 10.0 mph16.1 kmh 30.29 in1025.7 mb 0.00 in0.0 mm 0.00 in0.0 mm 0.00 in0.0 mm
08:24 AM 34.7°F1.5°C 31.2°F-0.4°C 87% 5.0 mph NNE8.0 kmh NNE 11.0 mph17.7 kmh 30.29 in1025.7 mb 0.00 in0.0 mm 0.00 in0.0 mm 0.00 in0.0 mm
08:29 AM 34.5°F1.4°C 31.3°F-0.4°C 88% 8.0 mph NE12.9 kmh NE 15.0 mph24.1 kmh 30.29 in1025.7 mb 0.00 in0.0 mm 0.00 in0.0 mm 0.00 in0.0 mm
08:34 AM 34.5°F1.4°C 31.3°F-0.4°C 88% 8.0 mph ENE12.9 kmh ENE 12.0 mph19.3 kmh 30.29 in1025.7 mb 0.00 in0.0 mm 0.00 in0.0 mm 0.00 in0.0 mm
08:39 AM 34.5°F1.4°C 31.3°F-0.4°C 88% 5.0 mph NE8.0 kmh NE 7.0 mph11.3 kmh 30.30 in1026.1 mb 0.00 in0.0 mm 0.00 in0.0 mm 0.00 in0.0 mm
08:44 AM 34.5°F1.4°C 31.3°F-0.4°C 88% 6.0 mph NE9.7 kmh NE 11.0 mph17.7 kmh 30.30 in1026.1 mb 0.00 in0.0 mm 0.00 in0.0 mm 0.00 in0.0 mm
08:49 AM 34.3°F1.3°C 31.2°F-0.4°C 88% 7.0 mph ENE11.3 kmh ENE 14.0 mph22.5 kmh 30.30 in1026.1 mb 0.00 in0.0 mm 0.00 in0.0 mm 0.00 in0.0 mm
08:54 AM 34.5°F1.4°C 31.3°F-0.4°C 88% 5.0 mph NE8.0 kmh NE 8.0 mph12.9 kmh 30.30 in1026.1 mb 0.00 in0.0 mm 0.00 in0.0 mm 0.00 in0.0 mm
08:59 AM 34.3°F1.3°C 30.9°F-0.6°C 87% 8.0 mph NE12.9 kmh NE 16.0 mph25.7 kmh 30.31 in1026.4 mb 0.00 in0.0 mm 0.00 in0.0 mm 0.00 in0.0 mm
09:04 AM 34.5°F1.4°C 31.1°F-0.5°C 87% 6.0 mph NE9.7 kmh NE 14.0 mph22.5 kmh 30.31 in1026.4 mb 0.00 in0.0 mm 0.00 in0.0 mm 0.00 in0.0 mm
09:09 AM 34.5°F1.4°C 31.1°F-0.5°C 87% 13.0 mph NE20.9 kmh NE 21.0 mph33.8 kmh 30.31 in1026.4 mb 0.00 in0.0 mm 0.00 in0.0 mm 0.00 in0.0 mm
09:14 AM 34.5°F1.4°C 30.8°F-0.7°C 86% 6.0 mph ENE9.7 kmh ENE 10.0 mph16.1 kmh 30.31 in1026.4 mb 0.00 in0.0 mm 0.00 in0.0 mm 0.00 in0.0 mm
09:19 AM 34.3°F1.3°C 30.6°F-0.8°C 86% 11.0 mph NE17.7 kmh NE 14.0 mph22.5 kmh 30.31 in1026.4 mb 0.00 in0.0 mm 0.00 in0.0 mm 0.00 in0.0 mm
09:24 AM 34.3°F1.3°C 30.3°F-0.9°C 85% 10.0 mph NE16.1 kmh NE 16.0 mph25.7 kmh 30.31 in1026.4 mb 0.00 in0.0 mm 0.00 in0.0 mm 0.00 in0.0 mm
09:29 AM 34.3°F1.3°C 30.3°F-0.9°C 85% 9.0 mph NE14.5 kmh NE 15.0 mph24.1 kmh 30.32 in1026.8 mb 0.00 in0.0 mm 0.00 in0.0 mm 0.00 in0.0 mm
09:34 AM 34.3°F1.3°C 30.3°F-0.9°C 85% 7.0 mph NE11.3 kmh NE 13.0 mph20.9 kmh 30.32 in1026.8 mb 0.00 in0.0 mm 0.00 in0.0 mm 0.00 in0.0 mm
09:39 AM 34.3°F1.3°C 30.3°F-0.9°C 85% 9.0 mph NNE14.5 kmh NNE 14.0 mph22.5 kmh 30.32 in1026.8 mb 0.00 in0.0 mm 0.00 in0.0 mm 0.00 in0.0 mm
09:44 AM 34.3°F1.3°C 30.3°F-0.9°C 85% 11.0 mph NE17.7 kmh NE 17.0 mph27.4 kmh 30.32 in1026.8 mb 0.00 in0.0 mm 0.00 in0.0 mm 0.00 in0.0 mm
09:49 AM 34.5°F1.4°C 30.5°F-0.8°C 85% 10.0 mph NE16.1 kmh NE 18.0 mph29.0 kmh 30.32 in1026.8 mb 0.00 in0.0 mm 0.00 in0.0 mm 0.00 in0.0 mm
09:54 AM 34.5°F1.4°C 30.5°F-0.8°C 85% 7.0 mph NE11.3 kmh NE 12.0 mph19.3 kmh 30.32 in1026.8 mb 0.00 in0.0 mm 0.00 in0.0 mm 0.00 in0.0 mm
09:59 AM 34.7°F1.5°C 30.7°F-0.7°C 85% 10.0 mph NE16.1 kmh NE 14.0 mph22.5 kmh 30.32 in1026.8 mb 0.00 in0.0 mm 0.00 in0.0 mm 0.00 in0.0 mm
10:04 AM 34.9°F1.6°C 30.6°F-0.8°C 84% 10.0 mph ENE16.1 kmh ENE 14.0 mph22.5 kmh 30.32 in1026.8 mb 0.00 in0.0 mm 0.00 in0.0 mm 0.00 in0.0 mm
10:09 AM 34.9°F1.6°C 30.6°F-0.8°C 84% 8.0 mph NE12.9 kmh NE 15.0 mph24.1 kmh 30.33 in1027.1 mb 0.00 in0.0 mm 0.00 in0.0 mm 0.00 in0.0 mm
10:14 AM 34.9°F1.6°C 30.6°F-0.8°C 84% 8.0 mph NE12.9 kmh NE 17.0 mph27.4 kmh 30.33 in1027.1 mb 0.00 in0.0 mm 0.00 in0.0 mm 0.00 in0.0 mm
10:19 AM 35.1°F1.7°C 30.4°F-0.9°C 83% 6.0 mph NE9.7 kmh NE 11.0 mph17.7 kmh 30.33 in1027.1 mb 0.00 in0.0 mm 0.00 in0.0 mm 0.00 in0.0 mm
10:24 AM 35.2°F1.8°C 30.6°F-0.8°C 83% 7.0 mph NE11.3 kmh NE 15.0 mph24.1 kmh 30.33 in1027.1 mb 0.00 in0.0 mm 0.00 in0.0 mm 0.00 in0.0 mm
10:29 AM 35.2°F1.8°C 30.3°F-0.9°C 82% 9.0 mph NE14.5 kmh NE 16.0 mph25.7 kmh 30.33 in1027.1 mb 0.00 in0.0 mm 0.00 in0.0 mm 0.00 in0.0 mm
10:34 AM 35.2°F1.8°C 30.3°F-0.9°C 82% 12.0 mph ENE19.3 kmh ENE 16.0 mph25.7 kmh 30.33 in1027.1 mb 0.00 in0.0 mm 0.00 in0.0 mm 0.00 in0.0 mm
10:39 AM 35.2°F1.8°C 30.3°F-0.9°C 82% 7.0 mph NNE11.3 kmh NNE 13.0 mph20.9 kmh 30.33 in1027.1 mb 0.00 in0.0 mm 0.00 in0.0 mm 0.00 in0.0 mm
10:44 AM 35.4°F1.9°C 30.5°F-0.8°C 82% 12.0 mph ENE19.3 kmh ENE 18.0 mph29.0 kmh 30.34 in1027.4 mb 0.00 in0.0 mm 0.00 in0.0 mm 0.00 in0.0 mm
10:49 AM 35.4°F1.9°C 30.2°F-1.0°C 81% 7.0 mph NE11.3 kmh NE 17.0 mph27.4 kmh 30.34 in1027.4 mb 0.00 in0.0 mm 0.00 in0.0 mm 0.00 in0.0 mm
10:54 AM 35.4°F1.9°C 30.2°F-1.0°C 81% 10.0 mph ENE16.1 kmh ENE 16.0 mph25.7 kmh 30.34 in1027.4 mb 0.00 in0.0 mm 0.00 in0.0 mm 0.00 in0.0 mm
10:59 AM 35.6°F2.0°C 30.4°F-0.9°C 81% 5.0 mph NE8.0 kmh NE 12.0 mph19.3 kmh 30.34 in1027.4 mb 0.00 in0.0 mm 0.00 in0.0 mm 0.00 in0.0 mm
11:04 AM 35.6°F2.0°C 30.1°F-1.1°C 80% 7.0 mph NNE11.3 kmh NNE 11.0 mph17.7 kmh 30.34 in1027.4 mb 0.00 in0.0 mm 0.00 in0.0 mm 0.00 in0.0 mm
11:09 AM 35.8°F2.1°C 29.9°F-1.2°C 79% 11.0 mph NE17.7 kmh NE 18.0 mph29.0 kmh 30.35 in1027.8 mb 0.00 in0.0 mm 0.00 in0.0 mm 0.00 in0.0 mm
11:14 AM 35.8°F2.1°C 29.9°F-1.2°C 79% 10.0 mph NE16.1 kmh NE 18.0 mph29.0 kmh 30.35 in1027.8 mb 0.00 in0.0 mm 0.00 in0.0 mm 0.00 in0.0 mm
11:19 AM 36.0°F2.2°C 29.8°F-1.2°C 78% 9.0 mph NE14.5 kmh NE 15.0 mph24.1 kmh 30.35 in1027.8 mb 0.00 in0.0 mm 0.00 in0.0 mm 0.00 in0.0 mm
11:24 AM 36.0°F2.2°C 29.8°F-1.2°C 78% 9.0 mph ENE14.5 kmh ENE 15.0 mph24.1 kmh 30.35 in1027.8 mb 0.00 in0.0 mm 0.00 in0.0 mm 0.00 in0.0 mm
11:29 AM 36.1°F2.3°C 30.0°F-1.1°C 78% 12.0 mph NE19.3 kmh NE 16.0 mph25.7 kmh 30.35 in1027.8 mb 0.00 in0.0 mm 0.00 in0.0 mm 0.00 in0.0 mm
11:34 AM 36.3°F2.4°C 30.1°F-1.1°C 78% 7.0 mph NE11.3 kmh NE 14.0 mph22.5 kmh 30.35 in1027.8 mb 0.00 in0.0 mm 0.00 in0.0 mm 0.00 in0.0 mm
11:39 AM 36.3°F2.4°C 29.8°F-1.2°C 77% 10.0 mph NE16.1 kmh NE 17.0 mph27.4 kmh 30.35 in1027.8 mb 0.00 in0.0 mm 0.00 in0.0 mm 0.00 in0.0 mm
11:44 AM 36.3°F2.4°C 29.5°F-1.4°C 76% 7.0 mph NNE11.3 kmh NNE 16.0 mph25.7 kmh 30.35 in1027.8 mb 0.00 in0.0 mm 0.00 in0.0 mm 0.00 in0.0 mm
11:49 AM 36.3°F2.4°C 29.8°F-1.2°C 77% 7.0 mph NE11.3 kmh NE 14.0 mph22.5 kmh 30.35 in1027.8 mb 0.00 in0.0 mm 0.00 in0.0 mm 0.00 in0.0 mm
11:54 AM 36.3°F2.4°C 29.5°F-1.4°C 76% 8.0 mph NE12.9 kmh NE 13.0 mph20.9 kmh 30.35 in1027.8 mb 0.00 in0.0 mm 0.00 in0.0 mm 0.00 in0.0 mm
11:59 AM 36.3°F2.4°C 29.5°F-1.4°C 76% 11.0 mph ENE17.7 kmh ENE 18.0 mph29.0 kmh 30.35 in1027.8 mb 0.00 in0.0 mm 0.00 in0.0 mm 0.00 in0.0 mm
12:04 PM 36.3°F2.4°C 29.5°F-1.4°C 76% 5.0 mph NE8.0 kmh NE 10.0 mph16.1 kmh 30.35 in1027.8 mb 0.00 in0.0 mm 0.00 in0.0 mm 0.00 in0.0 mm
12:09 PM 36.5°F2.5°C 29.7°F-1.3°C 76% 6.0 mph NE9.7 kmh NE 13.0 mph20.9 kmh 30.35 in1027.8 mb 0.00 in0.0 mm 0.00 in0.0 mm 0.00 in0.0 mm
12:14 PM 36.3°F2.4°C 29.2°F-1.6°C 75% 8.0 mph NE12.9 kmh NE 13.0 mph20.9 kmh 30.34 in1027.4 mb 0.00 in0.0 mm 0.00 in0.0 mm 0.00 in0.0 mm
12:19 PM 36.5°F2.5°C 29.7°F-1.3°C 76% 10.0 mph ENE16.1 kmh ENE 15.0 mph24.1 kmh 30.34 in1027.4 mb 0.00 in0.0 mm 0.00 in0.0 mm 0.00 in0.0 mm
12:24 PM 36.3°F2.4°C 29.2°F-1.6°C 75% 9.0 mph ENE14.5 kmh ENE 12.0 mph19.3 kmh 30.34 in1027.4 mb 0.00 in0.0 mm 0.00 in0.0 mm 0.00 in0.0 mm
12:29 PM 36.3°F2.4°C 29.2°F-1.6°C 75% 6.0 mph NE9.7 kmh NE 10.0 mph16.1 kmh 30.34 in1027.4 mb 0.00 in0.0 mm 0.00 in0.0 mm 0.00 in0.0 mm
12:34 PM 36.3°F2.4°C 29.2°F-1.6°C 75% 9.0 mph ENE14.5 kmh ENE 16.0 mph25.7 kmh 30.34 in1027.4 mb 0.00 in0.0 mm 0.00 in0.0 mm 0.00 in0.0 mm
12:39 PM 36.5°F2.5°C 29.4°F-1.4°C 75% 7.0 mph ENE11.3 kmh ENE 14.0 mph22.5 kmh 30.34 in1027.4 mb 0.00 in0.0 mm 0.00 in0.0 mm 0.00 in0.0 mm
12:44 PM 36.5°F2.5°C 29.4°F-1.4°C 75% 9.0 mph NE14.5 kmh NE 17.0 mph27.4 kmh 30.34 in1027.4 mb 0.00 in0.0 mm 0.00 in0.0 mm 0.00 in0.0 mm
12:49 PM 36.5°F2.5°C 29.4°F-1.4°C 75% 12.0 mph NE19.3 kmh NE 18.0 mph29.0 kmh 30.34 in1027.4 mb 0.00 in0.0 mm 0.00 in0.0 mm 0.00 in0.0 mm
12:54 PM 36.5°F2.5°C 29.4°F-1.4°C 75% 10.0 mph ENE16.1 kmh ENE 15.0 mph24.1 kmh 30.34 in1027.4 mb 0.00 in0.0 mm 0.00 in0.0 mm 0.00 in0.0 mm
12:59 PM 36.7°F2.6°C 29.5°F-1.4°C 75% 10.0 mph ENE16.1 kmh ENE 15.0 mph24.1 kmh 30.34 in1027.4 mb 0.00 in0.0 mm 0.00 in0.0 mm 0.00 in0.0 mm
01:04 PM 36.5°F2.5°C 29.4°F-1.4°C 75% 7.0 mph ENE11.3 kmh ENE 11.0 mph17.7 kmh 30.34 in1027.4 mb 0.00 in0.0 mm 0.00 in0.0 mm 0.00 in0.0 mm
01:09 PM 36.7°F2.6°C 29.5°F-1.4°C 75% 11.0 mph NE17.7 kmh NE 18.0 mph29.0 kmh 30.34 in1027.4 mb 0.00 in0.0 mm 0.00 in0.0 mm 0.00 in0.0 mm
01:14 PM 36.7°F2.6°C 29.5°F-1.4°C 75% 13.0 mph ENE20.9 kmh ENE 20.0 mph32.2 kmh 30.34 in1027.4 mb 0.00 in0.0 mm 0.00 in0.0 mm 0.00 in0.0 mm
01:19 PM 36.7°F2.6°C 29.2°F-1.6°C 74% 7.0 mph NE11.3 kmh NE 13.0 mph20.9 kmh 30.34 in1027.4 mb 0.00 in0.0 mm 0.00 in0.0 mm 0.00 in0.0 mm
01:24 PM 36.9°F2.7°C 29.4°F-1.4°C 74% 6.0 mph NE9.7 kmh NE 12.0 mph19.3 kmh 30.34 in1027.4 mb 0.00 in0.0 mm 0.00 in0.0 mm 0.00 in0.0 mm
01:29 PM 36.9°F2.7°C 29.4°F-1.4°C 74% 7.0 mph NE11.3 kmh NE 16.0 mph25.7 kmh 30.34 in1027.4 mb 0.00 in0.0 mm 0.00 in0.0 mm 0.00 in0.0 mm
01:34 PM 36.9°F2.7°C 29.4°F-1.4°C 74% 7.0 mph NE11.3 kmh NE 12.0 mph19.3 kmh 30.34 in1027.4 mb 0.00 in0.0 mm 0.00 in0.0 mm 0.00 in0.0 mm
01:39 PM 37.0°F2.8°C 29.5°F-1.4°C 74% 7.0 mph NE11.3 kmh NE 16.0 mph25.7 kmh 30.34 in1027.4 mb 0.00 in0.0 mm 0.00 in0.0 mm 0.00 in0.0 mm
01:44 PM 37.0°F2.8°C 29.2°F-1.6°C 73% 8.0 mph NE12.9 kmh NE 17.0 mph27.4 kmh 30.33 in1027.1 mb 0.00 in0.0 mm 0.00 in0.0 mm 0.00 in0.0 mm
01:49 PM 37.0°F2.8°C 29.5°F-1.4°C 74% 4.0 mph NE6.4 kmh NE 6.0 mph9.7 kmh 30.33 in1027.1 mb 0.00 in0.0 mm 0.00 in0.0 mm 0.00 in0.0 mm
01:54 PM 37.0°F2.8°C 29.2°F-1.6°C 73% 9.0 mph NE14.5 kmh NE 18.0 mph29.0 kmh 30.34 in1027.4 mb 0.00 in0.0 mm 0.00 in0.0 mm 0.00 in0.0 mm
01:59 PM 36.9°F2.7°C 29.0°F-1.7°C 73% 12.0 mph ENE19.3 kmh ENE 17.0 mph27.4 kmh 30.33 in1027.1 mb 0.00 in0.0 mm 0.00 in0.0 mm 0.00 in0.0 mm
02:04 PM 37.0°F2.8°C 29.5°F-1.4°C 74% 5.0 mph NE8.0 kmh NE 11.0 mph17.7 kmh 30.33 in1027.1 mb 0.00 in0.0 mm 0.00 in0.0 mm 0.00 in0.0 mm
02:09 PM 37.0°F2.8°C 29.2°F-1.6°C 73% 10.0 mph ENE16.1 kmh ENE 18.0 mph29.0 kmh 30.33 in1027.1 mb 0.00 in0.0 mm 0.00 in0.0 mm 0.00 in0.0 mm
02:14 PM 36.9°F2.7°C 29.0°F-1.7°C 73% 12.0 mph ENE19.3 kmh ENE 20.0 mph32.2 kmh 30.32 in1026.8 mb 0.00 in0.0 mm 0.00 in0.0 mm 0.00 in0.0 mm
02:19 PM 36.9°F2.7°C 29.0°F-1.7°C 73% 10.0 mph ENE16.1 kmh ENE 16.0 mph25.7 kmh 30.32 in1026.8 mb 0.00 in0.0 mm 0.00 in0.0 mm 0.00 in0.0 mm
02:24 PM 37.0°F2.8°C 29.2°F-1.6°C 73% 8.0 mph NE12.9 kmh NE 14.0 mph22.5 kmh 30.32 in1026.8 mb 0.00 in0.0 mm 0.00 in0.0 mm 0.00 in0.0 mm
02:29 PM 37.2°F2.9°C 29.7°F-1.3°C 74% 10.0 mph ENE16.1 kmh ENE 18.0 mph29.0 kmh 30.32 in1026.8 mb 0.00 in0.0 mm 0.00 in0.0 mm 0.00 in0.0 mm
02:34 PM 37.0°F2.8°C 29.2°F-1.6°C 73% 10.0 mph ENE16.1 kmh ENE 14.0 mph22.5 kmh 30.32 in1026.8 mb 0.00 in0.0 mm 0.00 in0.0 mm 0.00 in0.0 mm
02:39 PM 37.0°F2.8°C 29.2°F-1.6°C 73% 12.0 mph ENE19.3 kmh ENE 17.0 mph27.4 kmh 30.32 in1026.8 mb 0.00 in0.0 mm 0.00 in0.0 mm 0.00 in0.0 mm
02:44 PM 37.0°F2.8°C 29.2°F-1.6°C 73% 14.0 mph NE22.5 kmh NE 22.0 mph35.4 kmh 30.32 in1026.8 mb 0.00 in0.0 mm 0.00 in0.0 mm 0.00 in0.0 mm
02:49 PM 37.0°F2.8°C 29.2°F-1.6°C 73% 9.0 mph NNE14.5 kmh NNE 19.0 mph30.6 kmh 30.32 in1026.8 mb 0.00 in0.0 mm 0.00 in0.0 mm 0.00 in0.0 mm
02:54 PM 37.0°F2.8°C 29.2°F-1.6°C 73% 7.0 mph NE11.3 kmh NE 10.0 mph16.1 kmh 30.32 in1026.8 mb 0.00 in0.0 mm 0.00 in0.0 mm 0.00 in0.0 mm
02:59 PM 37.0°F2.8°C 29.2°F-1.6°C 73% 10.0 mph NE16.1 kmh NE 16.0 mph25.7 kmh 30.32 in1026.8 mb 0.00 in0.0 mm 0.00 in0.0 mm 0.00 in0.0 mm
03:04 PM 37.0°F2.8°C 29.2°F-1.6°C 73% 5.0 mph ENE8.0 kmh ENE 9.0 mph14.5 kmh 30.32 in1026.8 mb 0.00 in0.0 mm 0.00 in0.0 mm 0.00 in0.0 mm
03:09 PM 37.0°F2.8°C 29.2°F-1.6°C 73% 9.0 mph ENE14.5 kmh ENE 12.0 mph19.3 kmh 30.32 in1026.8 mb 0.00 in0.0 mm 0.00 in0.0 mm 0.00 in0.0 mm
03:14 PM 36.9°F2.7°C 29.0°F-1.7°C 73% 9.0 mph ENE14.5 kmh ENE 13.0 mph20.9 kmh 30.32 in1026.8 mb 0.00 in0.0 mm 0.00 in0.0 mm 0.00 in0.0 mm
03:19 PM 37.0°F2.8°C 29.2°F-1.6°C 73% 10.0 mph NE16.1 kmh NE 16.0 mph25.7 kmh 30.32 in1026.8 mb 0.00 in0.0 mm 0.00 in0.0 mm 0.00 in0.0 mm
03:24 PM 37.0°F2.8°C 29.2°F-1.6°C 73% 6.0 mph NE9.7 kmh NE 10.0 mph16.1 kmh 30.32 in1026.8 mb 0.00 in0.0 mm 0.00 in0.0 mm 0.00 in0.0 mm
03:29 PM 37.0°F2.8°C 29.2°F-1.6°C 73% 5.0 mph NE8.0 kmh NE 9.0 mph14.5 kmh 30.32 in1026.8 mb 0.00 in0.0 mm 0.00 in0.0 mm 0.00 in0.0 mm
03:34 PM 37.0°F2.8°C 29.2°F-1.6°C 73% 9.0 mph NE14.5 kmh NE 14.0 mph22.5 kmh 30.32 in1026.8 mb 0.00 in0.0 mm 0.00 in0.0 mm 0.00 in0.0 mm
03:39 PM 36.9°F2.7°C 29.0°F-1.7°C 73% 6.0 mph ENE9.7 kmh ENE 16.0 mph25.7 kmh 30.32 in1026.8 mb 0.00 in0.0 mm 0.00 in0.0 mm 0.00 in0.0 mm
03:44 PM 36.9°F2.7°C 29.0°F-1.7°C 73% 6.0 mph NE9.7 kmh NE 11.0 mph17.7 kmh 30.32 in1026.8 mb 0.00 in0.0 mm 0.00 in0.0 mm 0.00 in0.0 mm
03:49 PM 36.7°F2.6°C 28.9°F-1.7°C 73% 6.0 mph ENE9.7 kmh ENE 10.0 mph16.1 kmh 30.32 in1026.8 mb 0.00 in0.0 mm 0.00 in0.0 mm 0.00 in0.0 mm
03:54 PM 36.7°F2.6°C 28.9°F-1.7°C 73% 8.0 mph NNE12.9 kmh NNE 14.0 mph22.5 kmh 30.32 in1026.8 mb 0.00 in0.0 mm 0.00 in0.0 mm 0.00 in0.0 mm
03:59 PM 36.5°F2.5°C 29.0°F-1.7°C 74% 9.0 mph NE14.5 kmh NE 16.0 mph25.7 kmh 30.32 in1026.8 mb 0.00 in0.0 mm 0.00 in0.0 mm 0.00 in0.0 mm
04:04 PM 36.3°F2.4°C 28.9°F-1.7°C 74% 10.0 mph NE16.1 kmh NE 18.0 mph29.0 kmh 30.32 in1026.8 mb 0.00 in0.0 mm 0.00 in0.0 mm 0.00 in0.0 mm
04:09 PM 36.3°F2.4°C 29.2°F-1.6°C 75% 10.0 mph NE16.1 kmh NE 17.0 mph27.4 kmh 30.32 in1026.8 mb 0.00 in0.0 mm 0.00 in0.0 mm 0.00 in0.0 mm
04:14 PM 36.1°F2.3°C 29.0°F-1.7°C 75% 9.0 mph NE14.5 kmh NE 18.0 mph29.0 kmh 30.32 in1026.8 mb 0.00 in0.0 mm 0.00 in0.0 mm 0.00 in0.0 mm
04:19 PM 36.0°F2.2°C 28.8°F-1.8°C 75% 7.0 mph ENE11.3 kmh ENE 11.0 mph17.7 kmh 30.32 in1026.8 mb 0.00 in0.0 mm 0.00 in0.0 mm 0.00 in0.0 mm
04:24 PM 36.0°F2.2°C 28.8°F-1.8°C 75% 8.0 mph ENE12.9 kmh ENE 18.0 mph29.0 kmh 30.33 in1027.1 mb 0.00 in0.0 mm 0.00 in0.0 mm 0.00 in0.0 mm
04:29 PM 36.0°F2.2°C 28.8°F-1.8°C 75% 7.0 mph NE11.3 kmh NE 11.0 mph17.7 kmh 30.32 in1026.8 mb 0.00 in0.0 mm 0.00 in0.0 mm 0.00 in0.0 mm
04:34 PM 35.8°F2.1°C 29.0°F-1.7°C 76% 8.0 mph ENE12.9 kmh ENE 16.0 mph25.7 kmh 30.32 in1026.8 mb 0.00 in0.0 mm 0.00 in0.0 mm 0.00 in0.0 mm
04:39 PM 35.8°F2.1°C 29.0°F-1.7°C 76% 6.0 mph NE9.7 kmh NE 10.0 mph16.1 kmh 30.33 in1027.1 mb 0.00 in0.0 mm 0.00 in0.0 mm 0.00 in0.0 mm
04:44 PM 35.6°F2.0°C 28.8°F-1.8°C 76% 8.0 mph NE12.9 kmh NE 13.0 mph20.9 kmh 30.33 in1027.1 mb 0.00 in0.0 mm 0.00 in0.0 mm 0.00 in0.0 mm
04:49 PM 35.4°F1.9°C 28.6°F-1.9°C 76% 6.0 mph NE9.7 kmh NE 11.0 mph17.7 kmh 30.33 in1027.1 mb 0.00 in0.0 mm 0.00 in0.0 mm 0.00 in0.0 mm
04:54 PM 35.4°F1.9°C 28.9°F-1.7°C 77% 6.0 mph NE9.7 kmh NE 12.0 mph19.3 kmh 30.33 in1027.1 mb 0.00 in0.0 mm 0.00 in0.0 mm 0.00 in0.0 mm
04:59 PM 35.4°F1.9°C 28.9°F-1.7°C 77% 10.0 mph NE16.1 kmh NE 14.0 mph22.5 kmh 30.33 in1027.1 mb 0.00 in0.0 mm 0.00 in0.0 mm 0.00 in0.0 mm
05:04 PM 35.4°F1.9°C 28.9°F-1.7°C 77% 10.0 mph NE16.1 kmh NE 14.0 mph22.5 kmh 30.33 in1027.1 mb 0.00 in0.0 mm 0.00 in0.0 mm 0.00 in0.0 mm
05:09 PM 35.2°F1.8°C 28.8°F-1.8°C 77% 11.0 mph ENE17.7 kmh ENE 17.0 mph27.4 kmh 30.33 in1027.1 mb 0.00 in0.0 mm 0.00 in0.0 mm 0.00 in0.0 mm
05:14 PM 35.2°F1.8°C 28.8°F-1.8°C 77% 6.0 mph NE9.7 kmh NE 13.0 mph20.9 kmh 30.33 in1027.1 mb 0.00 in0.0 mm 0.00 in0.0 mm 0.00 in0.0 mm
05:19 PM 35.2°F1.8°C 29.1°F-1.6°C 78% 9.0 mph NE14.5 kmh NE 17.0 mph27.4 kmh 30.33 in1027.1 mb 0.00 in0.0 mm 0.00 in0.0 mm 0.00 in0.0 mm
05:24 PM 35.2°F1.8°C 28.8°F-1.8°C 77% 9.0 mph NE14.5 kmh NE 17.0 mph27.4 kmh 30.32 in1026.8 mb 0.00 in0.0 mm 0.00 in0.0 mm 0.00 in0.0 mm
05:29 PM 35.2°F1.8°C 29.1°F-1.6°C 78% 7.0 mph NE11.3 kmh NE 12.0 mph19.3 kmh 30.33 in1027.1 mb 0.00 in0.0 mm 0.00 in0.0 mm 0.00 in0.0 mm
05:34 PM 35.1°F1.7°C 28.9°F-1.7°C 78% 9.0 mph NE14.5 kmh NE 14.0 mph22.5 kmh 30.33 in1027.1 mb 0.00 in0.0 mm 0.00 in0.0 mm 0.00 in0.0 mm
05:39 PM 35.1°F1.7°C 28.9°F-1.7°C 78% 10.0 mph NE16.1 kmh NE 15.0 mph24.1 kmh 30.33 in1027.1 mb 0.00 in0.0 mm 0.00 in0.0 mm 0.00 in0.0 mm
05:44 PM 35.1°F1.7°C 28.9°F-1.7°C 78% 8.0 mph NE12.9 kmh NE 12.0 mph19.3 kmh 30.33 in1027.1 mb 0.00 in0.0 mm 0.00 in0.0 mm 0.00 in0.0 mm
05:49 PM 35.1°F1.7°C 28.9°F-1.7°C 78% 8.0 mph ENE12.9 kmh ENE 14.0 mph22.5 kmh 30.33 in1027.1 mb 0.00 in0.0 mm 0.00 in0.0 mm 0.00 in0.0 mm
05:54 PM 34.9°F1.6°C 28.7°F-1.8°C 78% 10.0 mph ENE16.1 kmh ENE 14.0 mph22.5 kmh 30.33 in1027.1 mb 0.00 in0.0 mm 0.00 in0.0 mm 0.00 in0.0 mm
05:59 PM 34.9°F1.6°C 28.7°F-1.8°C 78% 8.0 mph ENE12.9 kmh ENE 18.0 mph29.0 kmh 30.33 in1027.1 mb 0.00 in0.0 mm 0.00 in0.0 mm 0.00 in0.0 mm
06:04 PM 34.7°F1.5°C 28.6°F-1.9°C 78% 7.0 mph NE11.3 kmh NE 14.0 mph22.5 kmh 30.33 in1027.1 mb 0.00 in0.0 mm 0.00 in0.0 mm 0.00 in0.0 mm
06:09 PM 34.5°F1.4°C 28.4°F-2.0°C 78% 12.0 mph NE19.3 kmh NE 18.0 mph29.0 kmh 30.34 in1027.4 mb 0.00 in0.0 mm 0.00 in0.0 mm 0.00 in0.0 mm
06:14 PM 34.3°F1.3°C 28.2°F-2.1°C 78% 8.0 mph NE12.9 kmh NE 11.0 mph17.7 kmh 30.34 in1027.4 mb 0.00 in0.0 mm 0.00 in0.0 mm 0.00 in0.0 mm
06:19 PM 34.3°F1.3°C 28.5°F-1.9°C 79% 12.0 mph NE19.3 kmh NE 21.0 mph33.8 kmh 30.34 in1027.4 mb 0.00 in0.0 mm 0.00 in0.0 mm 0.00 in0.0 mm
06:24 PM 34.3°F1.3°C 28.5°F-1.9°C 79% 7.0 mph NE11.3 kmh NE 14.0 mph22.5 kmh 30.34 in1027.4 mb 0.00 in0.0 mm 0.00 in0.0 mm 0.00 in0.0 mm
06:29 PM 34.2°F1.2°C 28.3°F-2.1°C 79% 10.0 mph NE16.1 kmh NE 18.0 mph29.0 kmh 30.34 in1027.4 mb 0.00 in0.0 mm 0.00 in0.0 mm 0.00 in0.0 mm
06:34 PM 34.2°F1.2°C 28.3°F-2.1°C 79% 11.0 mph NE17.7 kmh NE 17.0 mph27.4 kmh 30.34 in1027.4 mb 0.00 in0.0 mm 0.00 in0.0 mm 0.00 in0.0 mm
06:39 PM 34.2°F1.2°C 28.3°F-2.1°C 79% 8.0 mph NE12.9 kmh NE 16.0 mph25.7 kmh 30.34 in1027.4 mb 0.00 in0.0 mm 0.00 in0.0 mm 0.00 in0.0 mm
06:44 PM 34.0°F1.1°C 28.5°F-1.9°C 80% 13.0 mph ENE20.9 kmh ENE 24.0 mph38.6 kmh 30.34 in1027.4 mb 0.00 in0.0 mm 0.00 in0.0 mm 0.00 in0.0 mm
06:49 PM 34.0°F1.1°C 28.5°F-1.9°C 80% 13.0 mph NE20.9 kmh NE 19.0 mph30.6 kmh 30.35 in1027.8 mb 0.00 in0.0 mm 0.00 in0.0 mm 0.00 in0.0 mm
06:54 PM 33.8°F1.0°C 28.3°F-2.1°C 80% 8.0 mph ENE12.9 kmh ENE 20.0 mph32.2 kmh 30.35 in1027.8 mb 0.00 in0.0 mm 0.00 in0.0 mm 0.00 in0.0 mm
06:59 PM 33.6°F0.9°C 28.1°F-2.2°C 80% 8.0 mph NE12.9 kmh NE 15.0 mph24.1 kmh 30.35 in1027.8 mb 0.00 in0.0 mm 0.00 in0.0 mm 0.00 in0.0 mm
07:04 PM 33.6°F0.9°C 28.4°F-2.0°C 81% 7.0 mph ENE11.3 kmh ENE 12.0 mph19.3 kmh 30.35 in1027.8 mb 0.00 in0.0 mm 0.00 in0.0 mm 0.00 in0.0 mm
07:09 PM 33.4°F0.8°C 28.3°F-2.1°C 81% 11.0 mph ENE17.7 kmh ENE 19.0 mph30.6 kmh 30.35 in1027.8 mb 0.00 in0.0 mm 0.00 in0.0 mm 0.00 in0.0 mm
07:14 PM 33.4°F0.8°C 28.3°F-2.1°C 81% 10.0 mph NE16.1 kmh NE 21.0 mph33.8 kmh 30.35 in1027.8 mb 0.00 in0.0 mm 0.00 in0.0 mm 0.00 in0.0 mm
07:19 PM 33.4°F0.8°C 28.3°F-2.1°C 81% 8.0 mph NE12.9 kmh NE 16.0 mph25.7 kmh 30.35 in1027.8 mb 0.00 in0.0 mm 0.00 in0.0 mm 0.00 in0.0 mm
07:24 PM 33.3°F0.7°C 28.4°F-2.0°C 82% 10.0 mph ENE16.1 kmh ENE 16.0 mph25.7 kmh 30.35 in1027.8 mb 0.00 in0.0 mm 0.00 in0.0 mm 0.00 in0.0 mm
07:29 PM 33.3°F0.7°C 28.4°F-2.0°C 82% 9.0 mph NE14.5 kmh NE 17.0 mph27.4 kmh 30.35 in1027.8 mb 0.00 in0.0 mm 0.00 in0.0 mm 0.00 in0.0 mm
07:34 PM 33.3°F0.7°C 28.4°F-2.0°C 82% 8.0 mph ENE12.9 kmh ENE 14.0 mph22.5 kmh 30.35 in1027.8 mb 0.00 in0.0 mm 0.00 in0.0 mm 0.00 in0.0 mm
07:39 PM 33.1°F0.6°C 28.2°F-2.1°C 82% 7.0 mph NE11.3 kmh NE 11.0 mph17.7 kmh 30.35 in1027.8 mb 0.00 in0.0 mm 0.00 in0.0 mm 0.00 in0.0 mm
07:44 PM 33.1°F0.6°C 28.5°F-1.9°C 83% 7.0 mph NE11.3 kmh NE 16.0 mph25.7 kmh 30.35 in1027.8 mb 0.00 in0.0 mm 0.00 in0.0 mm 0.00 in0.0 mm
07:49 PM 33.1°F0.6°C 28.5°F-1.9°C 83% 7.0 mph NE11.3 kmh NE 14.0 mph22.5 kmh 30.35 in1027.8 mb 0.00 in0.0 mm 0.00 in0.0 mm 0.00 in0.0 mm
07:54 PM 33.1°F0.6°C 28.5°F-1.9°C 83% 10.0 mph ENE16.1 kmh ENE 14.0 mph22.5 kmh 30.35 in1027.8 mb 0.00 in0.0 mm 0.00 in0.0 mm 0.00 in0.0 mm
07:59 PM 32.9°F0.5°C 28.3°F-2.1°C 83% 8.0 mph NE12.9 kmh NE 14.0 mph22.5 kmh 30.35 in1027.8 mb 0.00 in0.0 mm 0.00 in0.0 mm 0.00 in0.0 mm
08:04 PM 32.9°F0.5°C 28.3°F-2.1°C 83% 8.0 mph NE12.9 kmh NE 13.0 mph20.9 kmh 30.35 in1027.8 mb 0.00 in0.0 mm 0.00 in0.0 mm 0.00 in0.0 mm
08:09 PM 32.7°F0.4°C 28.4°F-2.0°C 84% 8.0 mph ENE12.9 kmh ENE 13.0 mph20.9 kmh 30.35 in1027.8 mb 0.00 in0.0 mm 0.00 in0.0 mm 0.00 in0.0 mm
08:14 PM 32.7°F0.4°C 28.4°F-2.0°C 84% 6.0 mph NE9.7 kmh NE 10.0 mph16.1 kmh 30.35 in1027.8 mb 0.00 in0.0 mm 0.00 in0.0 mm 0.00 in0.0 mm
08:19 PM 32.7°F0.4°C 28.4°F-2.0°C 84% 4.0 mph NE6.4 kmh NE 6.0 mph9.7 kmh 30.35 in1027.8 mb 0.00 in0.0 mm 0.00 in0.0 mm 0.00 in0.0 mm
08:24 PM 32.7°F0.4°C 28.4°F-2.0°C 84% 9.0 mph ENE14.5 kmh ENE 11.0 mph17.7 kmh 30.35 in1027.8 mb 0.00 in0.0 mm 0.00 in0.0 mm 0.00 in0.0 mm
08:29 PM 32.5°F0.3°C 28.3°F-2.1°C 84% 10.0 mph ENE16.1 kmh ENE 14.0 mph22.5 kmh 30.35 in1027.8 mb 0.00 in0.0 mm 0.00 in0.0 mm 0.00 in0.0 mm
08:34 PM 32.5°F0.3°C 28.3°F-2.1°C 84% 11.0 mph ENE17.7 kmh ENE 18.0 mph29.0 kmh 30.35 in1027.8 mb 0.00 in0.0 mm 0.00 in0.0 mm 0.00 in0.0 mm
08:39 PM 32.5°F0.3°C 28.3°F-2.1°C 84% 11.0 mph ENE17.7 kmh ENE 16.0 mph25.7 kmh 30.35 in1027.8 mb 0.00 in0.0 mm 0.00 in0.0 mm 0.00 in0.0 mm
08:44 PM 32.5°F0.3°C 28.3°F-2.1°C 84% 8.0 mph NE12.9 kmh NE 14.0 mph22.5 kmh 30.35 in1027.8 mb 0.00 in0.0 mm 0.00 in0.0 mm 0.00 in0.0 mm
08:49 PM 32.5°F0.3°C 28.3°F-2.1°C 84% 9.0 mph ENE14.5 kmh ENE 16.0 mph25.7 kmh 30.35 in1027.8 mb 0.00 in0.0 mm 0.00 in0.0 mm 0.00 in0.0 mm
08:54 PM 32.4°F0.2°C 28.1°F-2.2°C 84% 8.0 mph ENE12.9 kmh ENE 15.0 mph24.1 kmh 30.35 in1027.8 mb 0.00 in0.0 mm 0.00 in0.0 mm 0.00 in0.0 mm
08:59 PM 32.4°F0.2°C 28.1°F-2.2°C 84% 9.0 mph ENE14.5 kmh ENE 14.0 mph22.5 kmh 30.35 in1027.8 mb 0.00 in0.0 mm 0.00 in0.0 mm 0.00 in0.0 mm
09:04 PM 32.4°F0.2°C 28.1°F-2.2°C 84% 11.0 mph NE17.7 kmh NE 17.0 mph27.4 kmh 30.35 in1027.8 mb 0.00 in0.0 mm 0.00 in0.0 mm 0.00 in0.0 mm
09:09 PM 32.4°F0.2°C 28.1°F-2.2°C 84% 6.0 mph ENE9.7 kmh ENE 11.0 mph17.7 kmh 30.35 in1027.8 mb 0.00 in0.0 mm 0.00 in0.0 mm 0.00 in0.0 mm
09:14 PM 32.4°F0.2°C 28.1°F-2.2°C 84% 9.0 mph ENE14.5 kmh ENE 12.0 mph19.3 kmh 30.35 in1027.8 mb 0.00 in0.0 mm 0.00 in0.0 mm 0.00 in0.0 mm
09:19 PM 32.4°F0.2°C 28.1°F-2.2°C 84% 8.0 mph ENE12.9 kmh ENE 14.0 mph22.5 kmh 30.35 in1027.8 mb 0.00 in0.0 mm 0.00 in0.0 mm 0.00 in0.0 mm
09:24 PM 32.4°F0.2°C 27.8°F-2.3°C 83% 6.0 mph ENE9.7 kmh ENE 12.0 mph19.3 kmh 30.35 in1027.8 mb 0.00 in0.0 mm 0.00 in0.0 mm 0.00 in0.0 mm
09:29 PM 32.4°F0.2°C 27.8°F-2.3°C 83% 9.0 mph ENE14.5 kmh ENE 14.0 mph22.5 kmh 30.35 in1027.8 mb 0.00 in0.0 mm 0.00 in0.0 mm 0.00 in0.0 mm
09:34 PM 32.4°F0.2°C 27.8°F-2.3°C 83% 6.0 mph ENE9.7 kmh ENE 11.0 mph17.7 kmh 30.35 in1027.8 mb 0.00 in0.0 mm 0.00 in0.0 mm 0.00 in0.0 mm
09:39 PM 32.4°F0.2°C 27.8°F-2.3°C 83% 8.0 mph ENE12.9 kmh ENE 14.0 mph22.5 kmh 30.35 in1027.8 mb 0.00 in0.0 mm 0.00 in0.0 mm 0.00 in0.0 mm
09:44 PM 32.4°F0.2°C 27.8°F-2.3°C 83% 9.0 mph ENE14.5 kmh ENE 19.0 mph30.6 kmh 30.35 in1027.8 mb 0.00 in0.0 mm 0.00 in0.0 mm 0.00 in0.0 mm
09:49 PM 32.4°F0.2°C 27.8°F-2.3°C 83% 10.0 mph ENE16.1 kmh ENE 17.0 mph27.4 kmh 30.35 in1027.8 mb 0.00 in0.0 mm 0.00 in0.0 mm 0.00 in0.0 mm
09:54 PM 32.4°F0.2°C 27.8°F-2.3°C 83% 7.0 mph ENE11.3 kmh ENE 11.0 mph17.7 kmh 30.35 in1027.8 mb 0.00 in0.0 mm 0.00 in0.0 mm 0.00 in0.0 mm
09:59 PM 32.2°F0.1°C 27.6°F-2.4°C 83% 8.0 mph ENE12.9 kmh ENE 11.0 mph17.7 kmh 30.35 in1027.8 mb 0.00 in0.0 mm 0.00 in0.0 mm 0.00 in0.0 mm
10:04 PM 32.2°F0.1°C 27.6°F-2.4°C 83% 12.0 mph ENE19.3 kmh ENE 15.0 mph24.1 kmh 30.36 in1028.1 mb 0.00 in0.0 mm 0.00 in0.0 mm 0.00 in0.0 mm
10:09 PM 32.2°F0.1°C 27.3°F-2.6°C 82% 5.0 mph E8.0 kmh E 8.0 mph12.9 kmh 30.35 in1027.8 mb 0.00 in0.0 mm 0.00 in0.0 mm 0.00 in0.0 mm
10:14 PM 32.2°F0.1°C 27.3°F-2.6°C 82% 8.0 mph ENE12.9 kmh ENE 13.0 mph20.9 kmh 30.36 in1028.1 mb 0.00 in0.0 mm 0.00 in0.0 mm 0.00 in0.0 mm
10:19 PM 32.0°F0.0°C 27.1°F-2.7°C 82% 6.0 mph ENE9.7 kmh ENE 9.0 mph14.5 kmh 30.36 in1028.1 mb 0.00 in0.0 mm 0.00 in0.0 mm 0.00 in0.0 mm
10:24 PM 31.8°F-0.1°C 27.3°F-2.6°C 83% 5.0 mph NE8.0 kmh NE 11.0 mph17.7 kmh 30.35 in1027.8 mb 0.00 in0.0 mm 0.00 in0.0 mm 0.00 in0.0 mm
10:29 PM 31.8°F-0.1°C 27.3°F-2.6°C 83% 9.0 mph ENE14.5 kmh ENE 12.0 mph19.3 kmh 30.35 in1027.8 mb 0.00 in0.0 mm 0.00 in0.0 mm 0.00 in0.0 mm
10:34 PM 31.8°F-0.1°C 27.0°F-2.8°C 82% 8.0 mph ENE12.9 kmh ENE 15.0 mph24.1 kmh 30.35 in1027.8 mb 0.00 in0.0 mm 0.00 in0.0 mm 0.00 in0.0 mm
10:39 PM 32.0°F0.0°C 27.1°F-2.7°C 82% 4.0 mph ENE6.4 kmh ENE 7.0 mph11.3 kmh 30.36 in1028.1 mb 0.00 in0.0 mm 0.00 in0.0 mm 0.00 in0.0 mm
10:44 PM 31.8°F-0.1°C 27.0°F-2.8°C 82% 8.0 mph ENE12.9 kmh ENE 15.0 mph24.1 kmh 30.36 in1028.1 mb 0.00 in0.0 mm 0.00 in0.0 mm 0.00 in0.0 mm
10:49 PM 31.8°F-0.1°C 27.0°F-2.8°C 82% 6.0 mph NE9.7 kmh NE 10.0 mph16.1 kmh 30.36 in1028.1 mb 0.00 in0.0 mm 0.00 in0.0 mm 0.00 in0.0 mm
10:54 PM 31.6°F-0.2°C 27.1°F-2.7°C 83% 12.0 mph NE19.3 kmh NE 17.0 mph27.4 kmh 30.36 in1028.1 mb 0.00 in0.0 mm 0.00 in0.0 mm 0.00 in0.0 mm
10:59 PM 31.6°F-0.2°C 27.1°F-2.7°C 83% 8.0 mph ENE12.9 kmh ENE 12.0 mph19.3 kmh 30.36 in1028.1 mb 0.00 in0.0 mm 0.00 in0.0 mm 0.00 in0.0 mm
11:04 PM 31.6°F-0.2°C 27.1°F-2.7°C 83% 6.0 mph NE9.7 kmh NE 10.0 mph16.1 kmh 30.36 in1028.1 mb 0.00 in0.0 mm 0.00 in0.0 mm 0.00 in0.0 mm
11:09 PM 31.6°F-0.2°C 27.1°F-2.7°C 83% 8.0 mph ENE12.9 kmh ENE 11.0 mph17.7 kmh 30.36 in1028.1 mb 0.00 in0.0 mm 0.00 in0.0 mm 0.00 in0.0 mm
11:14 PM 31.5°F-0.3°C 26.9°F-2.8°C 83% 11.0 mph ENE17.7 kmh ENE 18.0 mph29.0 kmh 30.36 in1028.1 mb 0.00 in0.0 mm 0.00 in0.0 mm 0.00 in0.0 mm
11:19 PM 31.5°F-0.3°C 26.9°F-2.8°C 83% 8.0 mph ENE12.9 kmh ENE 14.0 mph22.5 kmh 30.36 in1028.1 mb 0.00 in0.0 mm 0.00 in0.0 mm 0.00 in0.0 mm
11:24 PM 31.5°F-0.3°C 26.9°F-2.8°C 83% 8.0 mph NE12.9 kmh NE 15.0 mph24.1 kmh 30.36 in1028.1 mb 0.00 in0.0 mm 0.00 in0.0 mm 0.00 in0.0 mm
11:29 PM 31.3°F-0.4°C 26.7°F-2.9°C 83% 11.0 mph ENE17.7 kmh ENE 18.0 mph29.0 kmh 30.35 in1027.8 mb 0.00 in0.0 mm 0.00 in0.0 mm 0.00 in0.0 mm
11:34 PM 31.3°F-0.4°C 26.7°F-2.9°C 83% 7.0 mph ENE11.3 kmh ENE 11.0 mph17.7 kmh 30.35 in1027.8 mb 0.00 in0.0 mm 0.00 in0.0 mm 0.00 in0.0 mm
11:39 PM 31.3°F-0.4°C 26.7°F-2.9°C 83% 6.0 mph NE9.7 kmh NE 13.0 mph20.9 kmh 30.35 in1027.8 mb 0.00 in0.0 mm 0.00 in0.0 mm 0.00 in0.0 mm
11:44 PM 31.3°F-0.4°C 26.7°F-2.9°C 83% 8.0 mph ENE12.9 kmh ENE 14.0 mph22.5 kmh 30.35 in1027.8 mb 0.00 in0.0 mm 0.00 in0.0 mm 0.00 in0.0 mm
11:49 PM 31.3°F-0.4°C 26.7°F-2.9°C 83% 9.0 mph ENE14.5 kmh ENE 14.0 mph22.5 kmh 30.35 in1027.8 mb 0.00 in0.0 mm 0.00 in0.0 mm 0.00 in0.0 mm
11:54 PM 31.3°F-0.4°C 26.7°F-2.9°C 83% 6.0 mph NE9.7 kmh NE 11.0 mph17.7 kmh 30.35 in1027.8 mb 0.00 in0.0 mm 0.00 in0.0 mm 0.00 in0.0 mm
11:59 PM 31.3°F-0.4°C 26.7°F-2.9°C 83% 9.0 mph ENE14.5 kmh ENE 14.0 mph22.5 kmh 30.35 in1027.8 mb 0.00 in0.0 mm 0.00 in0.0 mm 0.00 in0.0 mm